Apple Valley, CA (92307)

2:15 PM PST on March 06, 2015 (GMT -0800)
BandT | Change Station
CLOSE
Current Station
Personal Weather Station
Location: Apple Valley, CA
Elevation: 2913 ft
Nearby Weather Stations

Elev 2913 ft 34.55 °N, 117.21 °W | Updated 1 minute ago

Clear
Clear
69.2 °F
Feels Like 69.2 °F
N
6.0
Wind Variable Wind from NE
Gusts 11.0 mph

Today
High -- | Low -- °F
--% Chance of Precip.
Yesterday
High -- | Low -- °F
Precip. -- in
6:11 AM 5:48 PM
Full, 99% visible
Pressure 30.19 in
Visibility 10.0 miles
Clouds Clear
Dew Point 10 °F
Humidity 10%
Rainfall in
Snow Depth Not available.
UV 6 out of 12
Pollen 9.20 out of 12
Air Quality Not available.
Flu Activity Not available.
METAR KVCV 062155Z AUTO 07014G19KT 10SM CLR 21/M12 A3019 RMK AO2

More Conditions Fewer Conditions

Pressure 30.19 in
Visibility 10.0 miles
Clouds Clear
Dew Point 10 °F
Humidity 10%
Rainfall in
Snow Depth Not available.
UV 6 out of 12
Pollen 9.20 out of 12
Air Quality Not available.
Flu Activity Not available.
METAR KVCV 062155Z AUTO 07014G19KT 10SM CLR 21/M12 A3019 RMK AO2

More Conditions Fewer Conditions

10-Day Weather Forecast

Almanac

Astronomy

Mar. 06, 2015 Rise Set
Actual Time
Civil Twilight
Nautical Twilight
Astronomical Twilight
Moon
Length of Visible Light
Length of Day
Tomorrow will be .
, % of the Moon is Illuminated

Today's Extremes

State Highs State Lows

Community

WunderPhotos

Upload Photos

1,803,420 photos uploaded!

WunderBlogs® & News

Nearby

Air Quality

  Air Quality AQ Index Pollutant
Not available.

Snow Depth

Station Depth Elevation

Earthquake Activity

City Distance Mag. Time & Date
Minimum magnitude displayed is 2.5.

Coastal Water Temperatures

Place Temperature

Nearby Weather Stations